• Join FlightAware (Why Join?)
  • Login
  • US Flag 
10:59AM EDT


 

Airport Tracker/Info


-or-


 

Live Flight TrackerFlight Track Log ✈ ASQ6029 ✈ 26-Jul-2013 ✈ KAMA - KDEN

Flight Track Log - Related Links

Times and Time Zones

All times are in EDT time to prevent confusion due to time zone crossing. See the ASQ6029 flight status page for this flight to view local times or setup timezone preferences in your user account.

Time Position Orientation Groundspeed Altitude Reporting Facility
EDT Latitude Longitude Course Direction KTS MPH feet Rate Location/Type
01:31PM 35.3953 -101.7764 339° North 255 293 10,500  Level Albuquerque Center
01:32PM 35.5635 -101.8427 336° Northwest  Level FlightAware Approximate
01:32PM 35.4750 -101.8131 339° North 301 346 11,400  Level Albuquerque Center
01:33PM 35.6496 -101.8905 336° Northwest  Level FlightAware Approximate
01:33PM 35.5803 -101.8608 340° North 334 384 13,700  Level Albuquerque Center
01:34PM 35.7398 -101.9244 345° North  Level FlightAware Approximate
01:34PM 35.6672 -101.9011 339° North 333 383 15,500  Level Albuquerque Center
01:35PM 35.8327 -101.9663 338° Northwest  Level FlightAware Approximate
01:35PM 35.7564 -101.9425 339° North 339 390 16,700  Level Albuquerque Center
01:36PM 35.9213 -102.0188 340° North  Level FlightAware Approximate
01:36PM 35.8492 -101.9864 339° North 352 405 17,900  Level Albuquerque Center
01:37PM 35.9417 -102.0283 340° North 355 409 20,300 1,860 Climbing Albuquerque Center
01:38PM 36.0253 -102.0675 339° North 331 381 21,800 1,500 Climbing Albuquerque Center
01:40PM 36.1292 -102.1169 339° North 332 382 23,500 1,560 Climbing Albuquerque Center
01:41PM 36.2172 -102.1586 339° North 337 388 25,100 1,500 Climbing Albuquerque Center
01:42PM 36.3025 -102.1986 339° North 331 381 26,700 1,380 Climbing Albuquerque Center
01:43PM 36.3881 -102.2389 339° North 329 379 28,000 600 Climbing Albuquerque Center
01:44PM 36.4814 -102.2822 340° North 350 403 28,000  Level Albuquerque Center
01:45PM 36.5836 -102.3311 339° North 385 443 28,000  Level Albuquerque Center
01:46PM 36.7119 -102.3922 339° North 408 470 28,000  Level Albuquerque Center
01:47PM 36.8194 -102.4431 339° North 413 475 28,000  Level Albuquerque Center
01:48PM 36.9356 -102.4978 339° North 420 483 28,000  Level Albuquerque Center
01:49PM 37.0381 -102.5483 339° North 421 484 28,000  Level Albuquerque Center
01:50PM 37.1589 -102.6061 339° North 418 481 28,000  Level Albuquerque Center
01:51PM 37.2636 -102.6561 339° North 420 483 28,000  Level Albuquerque Center
01:52PM 37.3883 -102.7014 344° North 420 483 28,000  Level Albuquerque Center
01:53PM 37.4992 -102.7239 351° North 425 489 28,000  Level Denver Center
01:54PM 37.6097 -102.7475 350° North 423 487 28,000  Level Denver Center
01:55PM 37.7378 -102.7750 350° North 419 482 28,000  Level Denver Center
01:56PM 37.8486 -102.7981 351° North 422 486 28,000  Level Denver Center
01:57PM 37.9769 -102.8250 351° North 418 481 28,000  Level Denver Center
01:58PM 38.0933 -102.8503 350° North 418 481 28,000  Level Denver Center
01:59PM 38.1956 -102.8989 340° North 412 474 28,000  Level Denver Center
02:00PM 38.2989 -102.9878 326° Northwest 403 464 28,000  Level Denver Center
02:01PM 38.3886 -103.0636 326° Northwest 405 466 28,000  Level Denver Center
02:02PM 38.4928 -103.1542 326° Northwest 404 465 28,000  Level Denver Center
02:03PM 38.5897 -103.2364 326° Northwest 408 470 28,000  Level Denver Center
02:04PM 38.6825 -103.3172 326° Northwest 407 468 28,000  Level Denver Center
02:05PM 38.7767 -103.3975 326° Northwest 407 468 28,000  Level Denver Center
02:06PM 38.8703 -103.4789 326° Northwest 407 468 28,000  Level Denver Center
02:07PM 38.9639 -103.5597 326° Northwest 408 470 28,000  Level Denver Center
02:08PM 39.0772 -103.6572 326° Northwest 409 471 28,000 -540 Level Denver Center
02:09PM 39.1694 -103.7389 326° Northwest 406 467 26,900 -1,440 Descending Denver Center
02:10PM 39.2539 -103.8131 326° Northwest 365 420 25,100 -1,800 Descending Denver Center
02:11PM 39.3308 -103.8800 326° Northwest 337 388 23,300 -1,920 Descending Denver Center
02:13PM 39.4136 -103.9708 320° Northwest 375 432 21,200 -2,040 Descending Denver Center
02:14PM 39.4819 -104.0825 308° West 399 459 19,100 -1,980 Descending Denver Center
02:15PM 39.5511 -104.2042 306° West 383 441 17,200 -2,040 Descending Denver Center
02:16PM 39.6139 -104.3131 307° West 376 433 15,000 -1,920 Descending Denver Center
02:17PM 39.6803 -104.4311 306° West 378 435 13,300 -1,320 Descending Denver Center
02:18PM 39.7439 -104.5417 307° West 381 438 12,300 -1,080 Descending Denver Center
02:19PM 39.7508 -104.6731 274° West 358 412 11,100 -1,080 Descending Denver Center
02:20PM 39.7531 -104.8014 271° West 278 320 9,900 -1,020 Descending Denver Center